sensor_id;sensor_type;location;lat;lon;timestamp;temperature;humidity
65231;DHT22;51813;40.666;16.602;2022-07-23T00:01:23;27.40;42.80
65231;DHT22;51813;40.666;16.602;2022-07-23T00:03:49;27.40;41.00
65231;DHT22;51813;40.666;16.602;2022-07-23T00:06:15;27.40;40.70
65231;DHT22;51813;40.666;16.602;2022-07-23T00:08:41;27.30;40.30
65231;DHT22;51813;40.666;16.602;2022-07-23T00:11:07;27.30;40.50
65231;DHT22;51813;40.666;16.602;2022-07-23T00:13:33;27.30;40.60
65231;DHT22;51813;40.666;16.602;2022-07-23T00:15:59;27.30;40.80
65231;DHT22;51813;40.666;16.602;2022-07-23T00:18:24;27.30;40.50
65231;DHT22;51813;40.666;16.602;2022-07-23T00:20:51;27.30;40.40
65231;DHT22;51813;40.666;16.602;2022-07-23T00:23:16;27.30;40.60
65231;DHT22;51813;40.666;16.602;2022-07-23T00:25:42;27.30;40.80
65231;DHT22;51813;40.666;16.602;2022-07-23T00:28:08;27.40;41.30
65231;DHT22;51813;40.666;16.602;2022-07-23T00:30:34;27.30;40.90
65231;DHT22;51813;40.666;16.602;2022-07-23T00:33:02;27.30;40.50
65231;DHT22;51813;40.666;16.602;2022-07-23T00:35:32;27.30;39.70
65231;DHT22;51813;40.666;16.602;2022-07-23T00:37:58;27.30;39.40
65231;DHT22;51813;40.666;16.602;2022-07-23T00:40:26;27.30;39.60
65231;DHT22;51813;40.666;16.602;2022-07-23T00:42:52;27.30;39.70
65231;DHT22;51813;40.666;16.602;2022-07-23T00:45:18;27.20;39.50
65231;DHT22;51813;40.666;16.602;2022-07-23T00:47:44;27.30;39.60
65231;DHT22;51813;40.666;16.602;2022-07-23T00:50:11;27.20;40.20
65231;DHT22;51813;40.666;16.602;2022-07-23T00:52:37;27.30;39.90
65231;DHT22;51813;40.666;16.602;2022-07-23T00:55:04;27.30;40.50
65231;DHT22;51813;40.666;16.602;2022-07-23T00:57:31;27.30;39.60
65231;DHT22;51813;40.666;16.602;2022-07-23T00:59:56;27.30;39.20
65231;DHT22;51813;40.666;16.602;2022-07-23T01:02:24;27.30;39.50
65231;DHT22;51813;40.666;16.602;2022-07-23T01:04:50;27.20;39.30
65231;DHT22;51813;40.666;16.602;2022-07-23T01:07:16;27.20;40.00
65231;DHT22;51813;40.666;16.602;2022-07-23T01:09:43;27.20;39.40
65231;DHT22;51813;40.666;16.602;2022-07-23T01:12:09;27.20;39.20
65231;DHT22;51813;40.666;16.602;2022-07-23T01:14:35;27.20;40.80
65231;DHT22;51813;40.666;16.602;2022-07-23T01:17:00;27.20;41.50
65231;DHT22;51813;40.666;16.602;2022-07-23T01:19:26;27.20;40.90
65231;DHT22;51813;40.666;16.602;2022-07-23T01:21:53;27.20;39.60
65231;DHT22;51813;40.666;16.602;2022-07-23T01:24:20;27.20;39.70
65231;DHT22;51813;40.666;16.602;2022-07-23T01:26:47;27.20;39.50
65231;DHT22;51813;40.666;16.602;2022-07-23T01:29:14;27.20;39.00
65231;DHT22;51813;40.666;16.602;2022-07-23T01:31:40;27.20;39.10
65231;DHT22;51813;40.666;16.602;2022-07-23T01:34:06;27.20;39.30
65231;DHT22;51813;40.666;16.602;2022-07-23T01:36:36;27.20;39.40
65231;DHT22;51813;40.666;16.602;2022-07-23T01:39:03;27.10;39.80
65231;DHT22;51813;40.666;16.602;2022-07-23T01:41:29;27.10;40.10
65231;DHT22;51813;40.666;16.602;2022-07-23T01:43:55;27.10;41.00
65231;DHT22;51813;40.666;16.602;2022-07-23T01:46:21;27.20;40.70
65231;DHT22;51813;40.666;16.602;2022-07-23T01:48:47;27.20;40.50
65231;DHT22;51813;40.666;16.602;2022-07-23T01:51:12;27.20;40.20
65231;DHT22;51813;40.666;16.602;2022-07-23T01:53:38;27.10;39.80
65231;DHT22;51813;40.666;16.602;2022-07-23T01:56:04;27.10;39.50
65231;DHT22;51813;40.666;16.602;2022-07-23T01:58:30;27.10;40.10
65231;DHT22;51813;40.666;16.602;2022-07-23T02:00:56;27.10;39.80
65231;DHT22;51813;40.666;16.602;2022-07-23T02:03:22;27.10;39.70
65231;DHT22;51813;40.666;16.602;2022-07-23T02:05:48;27.10;40.00
65231;DHT22;51813;40.666;16.602;2022-07-23T02:08:14;27.10;40.50
65231;DHT22;51813;40.666;16.602;2022-07-23T02:10:40;27.10;40.90
65231;DHT22;51813;40.666;16.602;2022-07-23T02:13:06;27.10;40.10
65231;DHT22;51813;40.666;16.602;2022-07-23T02:15:32;27.10;39.80
65231;DHT22;51813;40.666;16.602;2022-07-23T02:17:58;27.10;39.60
65231;DHT22;51813;40.666;16.602;2022-07-23T02:20:24;27.10;39.70
65231;DHT22;51813;40.666;16.602;2022-07-23T02:22:50;27.10;39.80
65231;DHT22;51813;40.666;16.602;2022-07-23T02:25:16;27.10;40.40
65231;DHT22;51813;40.666;16.602;2022-07-23T02:27:41;27.10;41.10
65231;DHT22;51813;40.666;16.602;2022-07-23T02:30:08;27.10;39.90
65231;DHT22;51813;40.666;16.602;2022-07-23T02:32:34;27.10;40.30
65231;DHT22;51813;40.666;16.602;2022-07-23T02:35:00;27.00;40.20
65231;DHT22;51813;40.666;16.602;2022-07-23T02:37:26;27.00;40.50
65231;DHT22;51813;40.666;16.602;2022-07-23T02:39:52;27.10;41.10
65231;DHT22;51813;40.666;16.602;2022-07-23T02:42:18;27.10;40.10
65231;DHT22;51813;40.666;16.602;2022-07-23T02:44:44;27.10;39.60
65231;DHT22;51813;40.666;16.602;2022-07-23T02:47:10;27.10;39.60
65231;DHT22;51813;40.666;16.602;2022-07-23T02:49:35;27.00;39.60
65231;DHT22;51813;40.666;16.602;2022-07-23T02:52:01;27.10;39.50
65231;DHT22;51813;40.666;16.602;2022-07-23T02:54:27;27.00;40.00
65231;DHT22;51813;40.666;16.602;2022-07-23T02:56:53;27.00;40.10
65231;DHT22;51813;40.666;16.602;2022-07-23T02:59:19;27.00;40.40
65231;DHT22;51813;40.666;16.602;2022-07-23T03:01:45;27.00;40.50
65231;DHT22;51813;40.666;16.602;2022-07-23T03:04:12;27.00;40.50
65231;DHT22;51813;40.666;16.602;2022-07-23T03:06:38;27.00;40.60
65231;DHT22;51813;40.666;16.602;2022-07-23T03:09:04;27.00;39.90
65231;DHT22;51813;40.666;16.602;2022-07-23T03:11:30;27.00;39.80
65231;DHT22;51813;40.666;16.602;2022-07-23T03:13:56;27.00;40.00
65231;DHT22;51813;40.666;16.602;2022-07-23T03:16:22;27.00;40.10
65231;DHT22;51813;40.666;16.602;2022-07-23T03:18:47;27.00;40.10
65231;DHT22;51813;40.666;16.602;2022-07-23T03:21:13;27.00;40.10
65231;DHT22;51813;40.666;16.602;2022-07-23T03:23:39;27.00;40.10
65231;DHT22;51813;40.666;16.602;2022-07-23T03:26:05;27.00;39.90
65231;DHT22;51813;40.666;16.602;2022-07-23T03:28:31;27.00;40.30
65231;DHT22;51813;40.666;16.602;2022-07-23T03:30:57;26.90;41.60
65231;DHT22;51813;40.666;16.602;2022-07-23T03:33:22;27.00;40.80
65231;DHT22;51813;40.666;16.602;2022-07-23T03:35:49;27.00;40.60
65231;DHT22;51813;40.666;16.602;2022-07-23T03:38:15;27.00;40.30
65231;DHT22;51813;40.666;16.602;2022-07-23T03:40:40;27.00;40.10
65231;DHT22;51813;40.666;16.602;2022-07-23T03:43:06;27.00;40.10
65231;DHT22;51813;40.666;16.602;2022-07-23T03:45:33;26.90;40.40
65231;DHT22;51813;40.666;16.602;2022-07-23T03:47:59;26.90;40.30
65231;DHT22;51813;40.666;16.602;2022-07-23T03:50:25;26.90;39.90
65231;DHT22;51813;40.666;16.602;2022-07-23T03:52:51;26.90;40.30
65231;DHT22;51813;40.666;16.602;2022-07-23T03:55:17;26.90;40.30
65231;DHT22;51813;40.666;16.602;2022-07-23T03:57:43;26.90;40.80
65231;DHT22;51813;40.666;16.602;2022-07-23T04:00:10;26.90;42.10
65231;DHT22;51813;40.666;16.602;2022-07-23T04:02:37;26.90;41.40
65231;DHT22;51813;40.666;16.602;2022-07-23T04:05:04;27.00;40.60
65231;DHT22;51813;40.666;16.602;2022-07-23T04:07:30;26.90;40.80
65231;DHT22;51813;40.666;16.602;2022-07-23T04:09:56;27.00;40.90
65231;DHT22;51813;40.666;16.602;2022-07-23T04:12:22;26.90;41.00
65231;DHT22;51813;40.666;16.602;2022-07-23T04:14:47;26.90;41.30
65231;DHT22;51813;40.666;16.602;2022-07-23T04:17:13;26.90;41.50
65231;DHT22;51813;40.666;16.602;2022-07-23T04:19:39;26.90;41.60
65231;DHT22;51813;40.666;16.602;2022-07-23T04:22:10;26.90;41.80
65231;DHT22;51813;40.666;16.602;2022-07-23T04:24:36;26.90;42.00
65231;DHT22;51813;40.666;16.602;2022-07-23T04:27:02;26.90;42.20
65231;DHT22;51813;40.666;16.602;2022-07-23T04:29:28;26.90;42.10
65231;DHT22;51813;40.666;16.602;2022-07-23T04:31:54;26.90;42.20
65231;DHT22;51813;40.666;16.602;2022-07-23T04:34:19;26.90;42.40
65231;DHT22;51813;40.666;16.602;2022-07-23T04:36:45;26.90;42.40
65231;DHT22;51813;40.666;16.602;2022-07-23T04:39:11;26.90;42.80
65231;DHT22;51813;40.666;16.602;2022-07-23T04:41:37;26.90;43.00
65231;DHT22;51813;40.666;16.602;2022-07-23T04:44:03;26.90;43.20
65231;DHT22;51813;40.666;16.602;2022-07-23T04:46:29;26.80;43.30
65231;DHT22;51813;40.666;16.602;2022-07-23T04:48:55;26.90;43.90
65231;DHT22;51813;40.666;16.602;2022-07-23T04:51:20;26.80;43.70
65231;DHT22;51813;40.666;16.602;2022-07-23T04:53:46;26.80;43.40
65231;DHT22;51813;40.666;16.602;2022-07-23T04:56:12;26.80;43.60
65231;DHT22;51813;40.666;16.602;2022-07-23T04:58:38;26.90;43.50
65231;DHT22;51813;40.666;16.602;2022-07-23T05:01:03;26.90;43.50
65231;DHT22;51813;40.666;16.602;2022-07-23T05:03:29;26.90;43.70
65231;DHT22;51813;40.666;16.602;2022-07-23T05:05:55;26.90;43.80
65231;DHT22;51813;40.666;16.602;2022-07-23T05:08:21;26.90;44.10
65231;DHT22;51813;40.666;16.602;2022-07-23T05:10:47;26.90;45.20
65231;DHT22;51813;40.666;16.602;2022-07-23T05:13:15;26.80;44.70
65231;DHT22;51813;40.666;16.602;2022-07-23T05:15:41;26.80;44.90
65231;DHT22;51813;40.666;16.602;2022-07-23T05:18:07;26.80;45.10
65231;DHT22;51813;40.666;16.602;2022-07-23T05:20:33;26.80;45.90
65231;DHT22;51813;40.666;16.602;2022-07-23T05:22:59;26.80;44.90
65231;DHT22;51813;40.666;16.602;2022-07-23T05:25:24;26.90;44.90
65231;DHT22;51813;40.666;16.602;2022-07-23T05:27:50;26.90;44.30
65231;DHT22;51813;40.666;16.602;2022-07-23T05:30:16;26.90;44.70
65231;DHT22;51813;40.666;16.602;2022-07-23T05:32:41;26.90;45.00
65231;DHT22;51813;40.666;16.602;2022-07-23T05:35:08;26.90;45.30
65231;DHT22;51813;40.666;16.602;2022-07-23T05:37:33;26.90;45.50
65231;DHT22;51813;40.666;16.602;2022-07-23T05:40:04;26.80;45.80
65231;DHT22;51813;40.666;16.602;2022-07-23T05:42:32;26.80;47.30
65231;DHT22;51813;40.666;16.602;2022-07-23T05:44:57;26.80;45.80
65231;DHT22;51813;40.666;16.602;2022-07-23T05:47:23;26.80;46.50
65231;DHT22;51813;40.666;16.602;2022-07-23T05:49:49;26.80;45.40
65231;DHT22;51813;40.666;16.602;2022-07-23T05:52:15;26.90;46.40
65231;DHT22;51813;40.666;16.602;2022-07-23T05:54:40;26.90;47.30
65231;DHT22;51813;40.666;16.602;2022-07-23T05:57:07;26.90;46.70
65231;DHT22;51813;40.666;16.602;2022-07-23T05:59:32;26.90;45.90
65231;DHT22;51813;40.666;16.602;2022-07-23T06:01:58;26.90;46.80
65231;DHT22;51813;40.666;16.602;2022-07-23T06:04:24;26.90;46.20
65231;DHT22;51813;40.666;16.602;2022-07-23T06:06:50;26.90;46.80
65231;DHT22;51813;40.666;16.602;2022-07-23T06:09:15;26.90;47.00
65231;DHT22;51813;40.666;16.602;2022-07-23T06:11:41;26.90;46.60
65231;DHT22;51813;40.666;16.602;2022-07-23T06:14:07;26.90;46.70
65231;DHT22;51813;40.666;16.602;2022-07-23T06:16:32;26.80;45.90
65231;DHT22;51813;40.666;16.602;2022-07-23T06:18:58;26.90;46.00
65231;DHT22;51813;40.666;16.602;2022-07-23T06:21:24;26.90;46.60
65231;DHT22;51813;40.666;16.602;2022-07-23T06:23:50;26.90;46.60
65231;DHT22;51813;40.666;16.602;2022-07-23T06:26:15;26.90;46.50
65231;DHT22;51813;40.666;16.602;2022-07-23T06:28:41;26.90;45.90
65231;DHT22;51813;40.666;16.602;2022-07-23T06:31:07;26.90;45.60
65231;DHT22;51813;40.666;16.602;2022-07-23T06:33:33;26.90;46.10
65231;DHT22;51813;40.666;16.602;2022-07-23T06:35:59;26.90;46.20
65231;DHT22;51813;40.666;16.602;2022-07-23T06:38:25;26.90;46.90
65231;DHT22;51813;40.666;16.602;2022-07-23T06:40:51;26.90;45.70
65231;DHT22;51813;40.666;16.602;2022-07-23T06:43:17;26.90;46.00
65231;DHT22;51813;40.666;16.602;2022-07-23T06:45:42;26.90;46.20
65231;DHT22;51813;40.666;16.602;2022-07-23T06:48:08;26.90;45.60
65231;DHT22;51813;40.666;16.602;2022-07-23T06:50:34;26.90;46.40
65231;DHT22;51813;40.666;16.602;2022-07-23T06:53:00;26.90;46.20
65231;DHT22;51813;40.666;16.602;2022-07-23T06:55:25;26.90;46.70
65231;DHT22;51813;40.666;16.602;2022-07-23T06:57:51;26.90;46.00
65231;DHT22;51813;40.666;16.602;2022-07-23T07:00:17;26.90;46.40
65231;DHT22;51813;40.666;16.602;2022-07-23T07:02:43;26.90;46.40
65231;DHT22;51813;40.666;16.602;2022-07-23T07:05:08;26.90;46.10
65231;DHT22;51813;40.666;16.602;2022-07-23T07:07:35;26.90;46.80
65231;DHT22;51813;40.666;16.602;2022-07-23T07:10:04;26.90;46.70
65231;DHT22;51813;40.666;16.602;2022-07-23T07:12:30;26.90;46.30
65231;DHT22;51813;40.666;16.602;2022-07-23T07:14:55;26.90;47.50
65231;DHT22;51813;40.666;16.602;2022-07-23T07:17:22;26.90;46.70
65231;DHT22;51813;40.666;16.602;2022-07-23T07:19:47;27.00;48.40
65231;DHT22;51813;40.666;16.602;2022-07-23T07:22:13;26.90;48.00
65231;DHT22;51813;40.666;16.602;2022-07-23T07:24:39;26.90;46.90
65231;DHT22;51813;40.666;16.602;2022-07-23T07:27:05;26.90;46.40
65231;DHT22;51813;40.666;16.602;2022-07-23T07:29:31;26.90;48.20
65231;DHT22;51813;40.666;16.602;2022-07-23T07:31:56;26.90;46.70
65231;DHT22;51813;40.666;16.602;2022-07-23T07:34:22;26.90;46.80
65231;DHT22;51813;40.666;16.602;2022-07-23T07:36:48;26.90;46.70
65231;DHT22;51813;40.666;16.602;2022-07-23T07:39:13;26.90;46.90
65231;DHT22;51813;40.666;16.602;2022-07-23T07:41:39;26.90;47.90
65231;DHT22;51813;40.666;16.602;2022-07-23T07:44:05;27.00;46.70
65231;DHT22;51813;40.666;16.602;2022-07-23T07:46:31;27.00;46.90
65231;DHT22;51813;40.666;16.602;2022-07-23T07:48:57;26.90;46.90
65231;DHT22;51813;40.666;16.602;2022-07-23T07:51:22;26.90;47.30
65231;DHT22;51813;40.666;16.602;2022-07-23T07:53:48;26.90;47.40
65231;DHT22;51813;40.666;16.602;2022-07-23T07:56:14;26.90;47.10
65231;DHT22;51813;40.666;16.602;2022-07-23T07:58:39;26.90;47.30
65231;DHT22;51813;40.666;16.602;2022-07-23T08:01:05;26.90;47.10
65231;DHT22;51813;40.666;16.602;2022-07-23T08:03:32;26.90;47.00
65231;DHT22;51813;40.666;16.602;2022-07-23T08:05:57;26.90;48.30
65231;DHT22;51813;40.666;16.602;2022-07-23T08:08:24;26.90;46.80
65231;DHT22;51813;40.666;16.602;2022-07-23T08:10:50;27.00;48.00
65231;DHT22;51813;40.666;16.602;2022-07-23T08:13:16;27.00;46.80
65231;DHT22;51813;40.666;16.602;2022-07-23T08:15:43;27.00;47.90
65231;DHT22;51813;40.666;16.602;2022-07-23T08:18:09;27.00;47.90
65231;DHT22;51813;40.666;16.602;2022-07-23T08:20:36;27.00;47.30
65231;DHT22;51813;40.666;16.602;2022-07-23T08:23:06;27.00;47.00
65231;DHT22;51813;40.666;16.602;2022-07-23T08:25:37;27.00;47.30
65231;DHT22;51813;40.666;16.602;2022-07-23T08:28:05;26.90;47.00
65231;DHT22;51813;40.666;16.602;2022-07-23T08:30:32;26.90;47.90
65231;DHT22;51813;40.666;16.602;2022-07-23T08:35:33;26.90;47.50
65231;DHT22;51813;40.666;16.602;2022-07-23T08:38:01;27.00;48.20
65231;DHT22;51813;40.666;16.602;2022-07-23T08:40:29;27.00;46.80
65231;DHT22;51813;40.666;16.602;2022-07-23T08:42:55;27.00;47.00
65231;DHT22;51813;40.666;16.602;2022-07-23T08:45:23;27.00;46.90
65231;DHT22;51813;40.666;16.602;2022-07-23T08:47:54;27.00;47.80
65231;DHT22;51813;40.666;16.602;2022-07-23T08:50:21;26.90;49.20
65231;DHT22;51813;40.666;16.602;2022-07-23T08:52:49;26.90;48.20
65231;DHT22;51813;40.666;16.602;2022-07-23T08:55:19;26.90;48.20
65231;DHT22;51813;40.666;16.602;2022-07-23T08:57:48;26.90;47.20
65231;DHT22;51813;40.666;16.602;2022-07-23T09:00:15;26.90;48.50
65231;DHT22;51813;40.666;16.602;2022-07-23T09:02:43;26.90;47.80
65231;DHT22;51813;40.666;16.602;2022-07-23T09:05:10;27.00;47.20
65231;DHT22;51813;40.666;16.602;2022-07-23T09:10:55;27.00;47.80
65231;DHT22;51813;40.666;16.602;2022-07-23T09:13:35;27.00;47.40
65231;DHT22;51813;40.666;16.602;2022-07-23T09:16:06;27.00;47.90
65231;DHT22;51813;40.666;16.602;2022-07-23T09:18:39;26.90;49.10
65231;DHT22;51813;40.666;16.602;2022-07-23T09:23:57;26.90;47.90
65231;DHT22;51813;40.666;16.602;2022-07-23T09:32:03;26.90;47.80
65231;DHT22;51813;40.666;16.602;2022-07-23T09:34:34;27.00;48.40
65231;DHT22;51813;40.666;16.602;2022-07-23T09:37:18;27.10;48.50
65231;DHT22;51813;40.666;16.602;2022-07-23T09:39:45;27.10;48.90
65231;DHT22;51813;40.666;16.602;2022-07-23T09:42:20;27.20;48.70
65231;DHT22;51813;40.666;16.602;2022-07-23T09:44:53;27.20;49.00
65231;DHT22;51813;40.666;16.602;2022-07-23T09:47:20;27.20;48.50
65231;DHT22;51813;40.666;16.602;2022-07-23T09:50:02;27.20;48.00
65231;DHT22;51813;40.666;16.602;2022-07-23T09:52:32;27.30;47.70
65231;DHT22;51813;40.666;16.602;2022-07-23T09:55:03;27.30;48.20
65231;DHT22;51813;40.666;16.602;2022-07-23T09:57:31;27.30;48.40
65231;DHT22;51813;40.666;16.602;2022-07-23T10:00:00;27.30;48.60
65231;DHT22;51813;40.666;16.602;2022-07-23T10:02:28;27.40;48.20
65231;DHT22;51813;40.666;16.602;2022-07-23T10:04:54;27.40;48.80
65231;DHT22;51813;40.666;16.602;2022-07-23T10:07:22;27.40;48.30
65231;DHT22;51813;40.666;16.602;2022-07-23T10:09:50;27.40;47.60
65231;DHT22;51813;40.666;16.602;2022-07-23T10:12:18;27.40;48.60
65231;DHT22;51813;40.666;16.602;2022-07-23T10:15:01;27.40;47.60
65231;DHT22;51813;40.666;16.602;2022-07-23T10:17:29;27.50;47.40
65231;DHT22;51813;40.666;16.602;2022-07-23T10:19:55;27.50;46.80
65231;DHT22;51813;40.666;16.602;2022-07-23T10:22:24;27.50;47.10
65231;DHT22;51813;40.666;16.602;2022-07-23T10:31:00;27.60;47.00
65231;DHT22;51813;40.666;16.602;2022-07-23T10:41:40;27.70;43.70
65231;DHT22;51813;40.666;16.602;2022-07-23T10:44:08;27.70;44.20
65231;DHT22;51813;40.666;16.602;2022-07-23T10:46:35;27.80;43.20
65231;DHT22;51813;40.666;16.602;2022-07-23T10:49:31;27.70;43.50
65231;DHT22;51813;40.666;16.602;2022-07-23T10:52:19;27.70;42.60
65231;DHT22;51813;40.666;16.602;2022-07-23T10:54:56;27.70;43.50
65231;DHT22;51813;40.666;16.602;2022-07-23T10:57:49;27.80;43.70
65231;DHT22;51813;40.666;16.602;2022-07-23T11:00:19;27.80;43.80
65231;DHT22;51813;40.666;16.602;2022-07-23T11:02:47;27.70;43.30
65231;DHT22;51813;40.666;16.602;2022-07-23T11:05:14;27.80;42.90
65231;DHT22;51813;40.666;16.602;2022-07-23T11:10:50;27.80;42.00
65231;DHT22;51813;40.666;16.602;2022-07-23T11:16:08;27.80;40.70
65231;DHT22;51813;40.666;16.602;2022-07-23T11:24:06;27.90;42.90
65231;DHT22;51813;40.666;16.602;2022-07-23T11:34:46;27.80;42.10
65231;DHT22;51813;40.666;16.602;2022-07-23T11:39:55;27.60;42.90
65231;DHT22;51813;40.666;16.602;2022-07-23T11:42:20;27.50;43.30
65231;DHT22;51813;40.666;16.602;2022-07-23T11:44:46;27.50;43.50
65231;DHT22;51813;40.666;16.602;2022-07-23T11:47:12;27.50;43.50
65231;DHT22;51813;40.666;16.602;2022-07-23T11:49:39;27.60;43.20
65231;DHT22;51813;40.666;16.602;2022-07-23T11:52:10;27.60;41.70
65231;DHT22;51813;40.666;16.602;2022-07-23T11:54:46;27.60;42.70
65231;DHT22;51813;40.666;16.602;2022-07-23T11:57:13;27.60;43.30
65231;DHT22;51813;40.666;16.602;2022-07-23T11:59:39;27.50;42.00
65231;DHT22;51813;40.666;16.602;2022-07-23T12:02:06;27.50;42.10
65231;DHT22;51813;40.666;16.602;2022-07-23T12:04:44;27.50;42.90
65231;DHT22;51813;40.666;16.602;2022-07-23T12:07:39;27.50;43.30
65231;DHT22;51813;40.666;16.602;2022-07-23T12:12:48;27.40;43.80
65231;DHT22;51813;40.666;16.602;2022-07-23T12:15:23;27.50;44.50
65231;DHT22;51813;40.666;16.602;2022-07-23T12:17:51;27.50;44.00
65231;DHT22;51813;40.666;16.602;2022-07-23T12:20:25;27.50;44.30
65231;DHT22;51813;40.666;16.602;2022-07-23T12:22:55;27.40;44.00
65231;DHT22;51813;40.666;16.602;2022-07-23T12:25:26;27.50;45.70
65231;DHT22;51813;40.666;16.602;2022-07-23T12:28:04;27.40;45.60
65231;DHT22;51813;40.666;16.602;2022-07-23T12:33:04;27.40;44.50
65231;DHT22;51813;40.666;16.602;2022-07-23T12:38:06;27.30;46.00
65231;DHT22;51813;40.666;16.602;2022-07-23T12:40:35;27.30;45.50
65231;DHT22;51813;40.666;16.602;2022-07-23T12:43:09;27.30;45.70
65231;DHT22;51813;40.666;16.602;2022-07-23T12:46:04;27.30;45.50
65231;DHT22;51813;40.666;16.602;2022-07-23T12:48:35;27.40;46.10
65231;DHT22;51813;40.666;16.602;2022-07-23T12:51:09;27.30;45.50
65231;DHT22;51813;40.666;16.602;2022-07-23T12:53:42;27.30;45.50
65231;DHT22;51813;40.666;16.602;2022-07-23T12:56:09;27.30;45.70
65231;DHT22;51813;40.666;16.602;2022-07-23T13:01:07;27.30;46.00
65231;DHT22;51813;40.666;16.602;2022-07-23T13:03:41;27.30;45.90
65231;DHT22;51813;40.666;16.602;2022-07-23T13:06:09;27.30;46.00
65231;DHT22;51813;40.666;16.602;2022-07-23T13:08:37;27.20;46.40
65231;DHT22;51813;40.666;16.602;2022-07-23T13:11:04;27.30;45.90
65231;DHT22;51813;40.666;16.602;2022-07-23T13:13:32;27.30;45.50
65231;DHT22;51813;40.666;16.602;2022-07-23T13:15:59;27.30;45.40
65231;DHT22;51813;40.666;16.602;2022-07-23T13:18:25;27.30;46.10
65231;DHT22;51813;40.666;16.602;2022-07-23T13:20:51;27.30;46.30
65231;DHT22;51813;40.666;16.602;2022-07-23T13:23:18;27.20;45.60
65231;DHT22;51813;40.666;16.602;2022-07-23T13:25:44;27.20;46.10
65231;DHT22;51813;40.666;16.602;2022-07-23T13:28:12;27.20;45.40
65231;DHT22;51813;40.666;16.602;2022-07-23T13:30:38;27.20;45.90
65231;DHT22;51813;40.666;16.602;2022-07-23T13:33:04;27.20;45.40
65231;DHT22;51813;40.666;16.602;2022-07-23T13:35:30;27.20;45.60
65231;DHT22;51813;40.666;16.602;2022-07-23T13:37:56;27.20;45.90
65231;DHT22;51813;40.666;16.602;2022-07-23T13:40:22;27.30;46.40
65231;DHT22;51813;40.666;16.602;2022-07-23T13:42:48;27.30;45.50
65231;DHT22;51813;40.666;16.602;2022-07-23T13:45:15;27.30;45.50
65231;DHT22;51813;40.666;16.602;2022-07-23T13:47:40;27.30;46.20
65231;DHT22;51813;40.666;16.602;2022-07-23T13:50:06;27.30;45.60
65231;DHT22;51813;40.666;16.602;2022-07-23T13:52:32;27.30;45.90
65231;DHT22;51813;40.666;16.602;2022-07-23T13:55:02;27.30;45.90
65231;DHT22;51813;40.666;16.602;2022-07-23T13:57:29;27.20;45.70
65231;DHT22;51813;40.666;16.602;2022-07-23T13:59:55;27.20;46.20
65231;DHT22;51813;40.666;16.602;2022-07-23T14:02:21;27.20;47.00
65231;DHT22;51813;40.666;16.602;2022-07-23T14:04:47;27.30;46.00
65231;DHT22;51813;40.666;16.602;2022-07-23T14:07:13;27.30;45.00
65231;DHT22;51813;40.666;16.602;2022-07-23T14:09:38;27.30;45.00
65231;DHT22;51813;40.666;16.602;2022-07-23T14:12:05;27.30;46.20
65231;DHT22;51813;40.666;16.602;2022-07-23T14:14:31;27.30;46.00
65231;DHT22;51813;40.666;16.602;2022-07-23T14:16:56;27.20;45.80
65231;DHT22;51813;40.666;16.602;2022-07-23T14:19:23;27.30;45.60
65231;DHT22;51813;40.666;16.602;2022-07-23T14:21:48;27.20;45.70
65231;DHT22;51813;40.666;16.602;2022-07-23T14:24:15;27.20;46.00
65231;DHT22;51813;40.666;16.602;2022-07-23T14:26:41;27.20;45.50
65231;DHT22;51813;40.666;16.602;2022-07-23T14:29:07;27.20;46.40
65231;DHT22;51813;40.666;16.602;2022-07-23T14:31:33;27.30;45.50
65231;DHT22;51813;40.666;16.602;2022-07-23T14:33:58;27.30;45.70
65231;DHT22;51813;40.666;16.602;2022-07-23T14:36:24;27.30;46.60
65231;DHT22;51813;40.666;16.602;2022-07-23T14:38:50;27.30;45.90
65231;DHT22;51813;40.666;16.602;2022-07-23T14:41:16;27.30;46.90
65231;DHT22;51813;40.666;16.602;2022-07-23T14:43:42;27.30;46.50
65231;DHT22;51813;40.666;16.602;2022-07-23T14:46:08;27.30;45.40
65231;DHT22;51813;40.666;16.602;2022-07-23T14:48:34;27.30;46.50
65231;DHT22;51813;40.666;16.602;2022-07-23T14:50:59;27.30;46.60
65231;DHT22;51813;40.666;16.602;2022-07-23T14:53:25;27.30;45.50
65231;DHT22;51813;40.666;16.602;2022-07-23T14:55:51;27.20;46.20
65231;DHT22;51813;40.666;16.602;2022-07-23T14:58:17;27.30;45.00
65231;DHT22;51813;40.666;16.602;2022-07-23T15:00:43;27.40;45.60
65231;DHT22;51813;40.666;16.602;2022-07-23T15:03:09;27.40;46.40
65231;DHT22;51813;40.666;16.602;2022-07-23T15:05:34;27.40;46.00
65231;DHT22;51813;40.666;16.602;2022-07-23T15:08:00;27.40;44.90
65231;DHT22;51813;40.666;16.602;2022-07-23T15:10:26;27.50;45.30
65231;DHT22;51813;40.666;16.602;2022-07-23T15:12:52;27.50;45.40
65231;DHT22;51813;40.666;16.602;2022-07-23T15:15:17;27.60;45.80
65231;DHT22;51813;40.666;16.602;2022-07-23T15:17:43;27.60;44.80
65231;DHT22;51813;40.666;16.602;2022-07-23T15:20:09;27.60;45.50
65231;DHT22;51813;40.666;16.602;2022-07-23T15:22:35;27.70;46.00
65231;DHT22;51813;40.666;16.602;2022-07-23T15:25:01;27.80;45.20
65231;DHT22;51813;40.666;16.602;2022-07-23T15:27:27;27.90;45.20
65231;DHT22;51813;40.666;16.602;2022-07-23T15:29:53;28.00;44.90
65231;DHT22;51813;40.666;16.602;2022-07-23T15:32:19;28.00;44.80
65231;DHT22;51813;40.666;16.602;2022-07-23T15:34:44;28.00;45.20
65231;DHT22;51813;40.666;16.602;2022-07-23T15:37:10;28.00;45.20
65231;DHT22;51813;40.666;16.602;2022-07-23T15:39:36;28.00;44.80
65231;DHT22;51813;40.666;16.602;2022-07-23T15:42:02;28.00;44.90
65231;DHT22;51813;40.666;16.602;2022-07-23T15:44:28;28.00;45.50
65231;DHT22;51813;40.666;16.602;2022-07-23T15:46:55;28.10;44.70
65231;DHT22;51813;40.666;16.602;2022-07-23T15:49:21;28.20;44.40
65231;DHT22;51813;40.666;16.602;2022-07-23T15:51:47;28.20;44.40
65231;DHT22;51813;40.666;16.602;2022-07-23T15:54:12;28.30;44.10
65231;DHT22;51813;40.666;16.602;2022-07-23T15:56:38;28.30;43.90
65231;DHT22;51813;40.666;16.602;2022-07-23T15:59:07;28.30;44.10
65231;DHT22;51813;40.666;16.602;2022-07-23T16:01:33;28.40;43.90
65231;DHT22;51813;40.666;16.602;2022-07-23T16:03:59;28.30;43.80
65231;DHT22;51813;40.666;16.602;2022-07-23T16:06:26;28.40;43.70
65231;DHT22;51813;40.666;16.602;2022-07-23T16:08:52;28.40;43.90
65231;DHT22;51813;40.666;16.602;2022-07-23T16:11:18;28.50;43.70
65231;DHT22;51813;40.666;16.602;2022-07-23T16:13:44;28.60;43.50
65231;DHT22;51813;40.666;16.602;2022-07-23T16:16:10;28.70;43.20